createdAt,value
2022-12-17T00:02:22.842Z,32.57
2022-12-17T00:07:44.297Z,35.97
2022-12-17T00:13:07.750Z,34.27
2022-12-17T00:18:27.939Z,36.87
2022-12-17T00:23:48.212Z,42.80
2022-12-17T00:29:09.115Z,41.70
2022-12-17T00:34:32.134Z,37.17
2022-12-17T00:39:57.619Z,35.40
2022-12-17T00:45:21.698Z,37.20
2022-12-17T00:50:42.056Z,32.33
2022-12-17T00:56:01.894Z,38.73
2022-12-17T01:01:22.716Z,42.37
2022-12-17T01:06:42.735Z,41.47
2022-12-17T01:12:03.285Z,39.37
2022-12-17T01:17:23.182Z,39.23
2022-12-17T01:22:43.486Z,40.13
2022-12-17T01:28:06.692Z,36.97
2022-12-17T01:33:28.436Z,33.80
2022-12-17T01:39:02.320Z,35.40
2022-12-17T01:45:00.500Z,40.13
2022-12-17T01:50:20.843Z,38.37
2022-12-17T01:55:41.400Z,44.20
2022-12-17T02:01:01.611Z,37.27
2022-12-17T02:06:37.325Z,38.97
2022-12-17T02:12:04.059Z,39.00
2022-12-17T02:17:26.240Z,37.93
2022-12-17T02:23:00.075Z,39.47
2022-12-17T02:28:22.032Z,37.30
2022-12-17T02:33:43.180Z,42.77
2022-12-17T02:39:04.419Z,32.67
2022-12-17T02:44:26.634Z,38.40
2022-12-17T02:49:47.537Z,32.80
2022-12-17T02:55:08.338Z,37.53
2022-12-17T03:00:29.329Z,44.37
2022-12-17T03:05:49.742Z,38.57
2022-12-17T03:11:11.654Z,37.53
2022-12-17T03:16:37.677Z,36.83
2022-12-17T03:21:58.474Z,35.43
2022-12-17T03:27:18.540Z,33.87
2022-12-17T03:32:38.804Z,34.07
2022-12-17T03:37:58.954Z,36.80
2022-12-17T03:43:25.176Z,40.50
2022-12-17T03:48:46.162Z,33.27
2022-12-17T03:54:06.828Z,31.23
2022-12-17T03:59:27.114Z,37.70
2022-12-17T04:04:47.151Z,26.37
2022-12-17T04:10:07.374Z,31.30
2022-12-17T04:15:27.742Z,30.20
2022-12-17T04:20:47.819Z,34.77
2022-12-17T04:26:08.078Z,29.27
2022-12-17T04:31:28.418Z,27.90
2022-12-17T04:36:48.593Z,33.23
2022-12-17T04:42:08.962Z,30.43
2022-12-17T04:47:29.149Z,30.00
2022-12-17T04:52:50.571Z,30.43
2022-12-17T04:58:10.650Z,27.33
2022-12-17T05:03:33.692Z,25.63
2022-12-17T05:08:54.392Z,29.73
2022-12-17T05:14:14.546Z,27.30
2022-12-17T05:19:34.714Z,30.93
2022-12-17T05:24:55.171Z,29.43
2022-12-17T05:30:15.397Z,25.77
2022-12-17T05:35:35.314Z,28.73
2022-12-17T05:40:55.297Z,23.90
2022-12-17T05:46:15.620Z,27.60
2022-12-17T05:51:38.886Z,29.10
2022-12-17T05:56:59.532Z,26.63
2022-12-17T06:02:19.796Z,23.87
2022-12-17T06:07:40.088Z,26.83
2022-12-17T06:13:00.348Z,30.17
2022-12-17T06:18:22.353Z,26.10
2022-12-17T06:23:43.807Z,27.17
2022-12-17T06:29:04.088Z,26.53
2022-12-17T06:34:24.255Z,26.40
2022-12-17T06:39:44.541Z,24.23
2022-12-17T06:45:04.846Z,27.17
2022-12-17T06:50:25.684Z,28.03
2022-12-17T06:55:59.493Z,26.77
2022-12-17T07:01:19.920Z,26.40
2022-12-17T07:06:40.182Z,22.40
2022-12-17T07:12:00.362Z,21.87
2022-12-17T07:17:20.522Z,17.97
2022-12-17T07:22:40.621Z,14.50
2022-12-17T07:28:00.700Z,13.27
2022-12-17T07:33:25.797Z,16.07
2022-12-17T07:38:45.968Z,12.13
2022-12-17T07:44:06.236Z,12.13
2022-12-17T07:49:26.570Z,11.53
2022-12-17T07:54:47.344Z,13.33
2022-12-17T08:00:07.252Z,13.43
2022-12-17T08:05:27.653Z,13.73
2022-12-17T08:10:47.922Z,12.73
2022-12-17T08:16:08.715Z,11.83
2022-12-17T08:21:28.643Z,12.87
2022-12-17T08:26:48.857Z,10.77
2022-12-17T08:32:09.105Z,13.57
2022-12-17T08:37:29.337Z,13.90
2022-12-17T08:42:49.607Z,13.87
2022-12-17T08:48:09.922Z,15.70
2022-12-17T08:53:34.689Z,13.50
2022-12-17T08:58:59.081Z,11.63
2022-12-17T09:04:19.698Z,15.20
2022-12-17T09:09:39.656Z,12.13
2022-12-17T09:15:00.075Z,11.37
2022-12-17T09:20:23.696Z,11.57
2022-12-17T09:25:46.828Z,16.87
2022-12-17T09:31:07.403Z,13.57
2022-12-17T09:36:28.070Z,12.87
2022-12-17T09:41:58.829Z,22.57
2022-12-17T09:47:46.127Z,22.30
2022-12-17T09:53:06.415Z,14.07
2022-12-17T09:58:39.037Z,17.07
2022-12-17T10:04:02.094Z,16.40
2022-12-17T10:09:31.399Z,18.17
2022-12-17T10:14:52.226Z,12.97
2022-12-17T10:20:13.071Z,18.17
2022-12-17T10:25:41.163Z,15.67
2022-12-17T10:31:02.127Z,15.17
2022-12-17T10:36:24.680Z,14.40
2022-12-17T10:41:47.432Z,16.43
2022-12-17T10:47:14.759Z,12.43
2022-12-17T10:52:45.631Z,15.57
2022-12-17T10:58:07.413Z,15.30
2022-12-17T11:04:03.341Z,15.67
2022-12-17T11:09:23.480Z,15.93
2022-12-17T11:14:45.388Z,14.40
2022-12-17T11:20:15.599Z,14.20
2022-12-17T11:25:48.755Z,16.93
2022-12-17T11:31:15.241Z,18.33
2022-12-17T11:36:45.189Z,16.37
2022-12-17T11:42:18.489Z,19.20
2022-12-17T11:47:38.907Z,15.10
2022-12-17T11:53:20.559Z,17.83
2022-12-17T11:59:20.944Z,14.73
2022-12-17T12:05:02.696Z,17.80
2022-12-17T12:10:30.944Z,17.87
2022-12-17T12:16:28.456Z,16.73
2022-12-17T12:21:57.136Z,18.37
2022-12-17T12:27:42.246Z,16.27
2022-12-17T12:33:40.437Z,13.50
2022-12-17T12:39:02.640Z,15.87
2022-12-17T12:44:31.890Z,16.57
2022-12-17T12:50:33.396Z,14.37
2022-12-17T12:56:01.224Z,18.20
2022-12-17T13:01:21.615Z,12.57
2022-12-17T13:06:44.296Z,12.77
2022-12-17T13:11:47.408Z,12.07
2022-12-17T13:16:55.881Z,13.23
2022-12-17T13:22:09.856Z,14.63
2022-12-17T13:27:31.994Z,14.20
2022-12-17T13:32:45.152Z,15.43
2022-12-17T13:37:55.783Z,17.17
2022-12-17T13:42:57.800Z,15.03
2022-12-17T13:47:59.540Z,13.97
2022-12-17T13:53:12.803Z,18.10
2022-12-17T13:58:31.002Z,13.77
2022-12-17T14:03:57.089Z,16.63
2022-12-17T14:08:56.672Z,14.33
2022-12-17T14:13:58.613Z,16.17
2022-12-17T14:19:00.323Z,14.47
2022-12-17T14:24:02.013Z,15.57
2022-12-17T14:29:13.186Z,14.17
2022-12-17T14:34:15.834Z,15.43
2022-12-17T14:39:19.477Z,13.80
2022-12-17T14:44:27.398Z,12.73
2022-12-17T14:49:29.033Z,12.80
2022-12-17T14:54:30.793Z,17.53
2022-12-17T14:59:35.122Z,13.10
2022-12-17T15:04:37.770Z,13.40
2022-12-17T15:09:40.613Z,14.67
2022-12-17T15:14:42.181Z,13.53
2022-12-17T15:19:43.857Z,13.80
2022-12-17T15:24:45.785Z,12.47
2022-12-17T15:29:47.321Z,17.07
2022-12-17T15:34:50.517Z,14.03
2022-12-17T15:39:52.286Z,15.47
2022-12-17T15:44:53.919Z,14.00
2022-12-17T15:49:55.589Z,14.60
2022-12-17T15:54:57.779Z,16.90
2022-12-17T15:59:59.552Z,14.40
2022-12-17T16:05:01.329Z,14.47
2022-12-17T16:10:05.436Z,12.40
2022-12-17T16:15:08.724Z,12.50
2022-12-17T16:20:10.887Z,12.33
2022-12-17T16:25:12.822Z,14.20
2022-12-17T16:30:14.508Z,15.23
2022-12-17T16:35:17.144Z,14.37
2022-12-17T16:40:18.657Z,16.87
2022-12-17T16:45:20.420Z,16.80
2022-12-17T16:50:22.962Z,14.67
2022-12-17T16:55:24.690Z,14.00
2022-12-17T17:00:27.173Z,17.53
2022-12-17T17:05:33.033Z,16.83
2022-12-17T17:10:36.799Z,14.73
2022-12-17T17:15:38.476Z,16.50
2022-12-17T17:20:40.068Z,18.00
2022-12-17T17:25:57.421Z,16.90
2022-12-17T17:31:01.630Z,18.03
2022-12-17T17:36:27.067Z,14.97
2022-12-17T17:41:30.183Z,19.60
2022-12-17T17:46:32.588Z,12.97
2022-12-17T17:52:08.016Z,14.40
2022-12-17T17:56:58.631Z,14.17
2022-12-17T18:02:01.000Z,16.23
2022-12-17T18:07:24.201Z,16.57
2022-12-17T18:12:43.043Z,17.67
2022-12-17T18:17:46.088Z,16.70
2022-12-17T18:22:48.262Z,20.63
2022-12-17T18:27:53.494Z,16.73
2022-12-17T18:32:55.390Z,17.10
2022-12-17T18:37:57.053Z,19.70
2022-12-17T18:43:17.247Z,18.07
2022-12-17T18:48:19.921Z,18.43
2022-12-17T18:53:21.530Z,17.07
2022-12-17T18:58:23.099Z,22.30
2022-12-17T19:03:24.921Z,18.63
2022-12-17T19:08:26.589Z,19.13
2022-12-17T19:13:28.107Z,20.43
2022-12-17T19:18:30.443Z,20.47
2022-12-17T19:23:33.708Z,18.20
2022-12-17T19:28:36.249Z,20.93
2022-12-17T19:33:38.597Z,24.23
2022-12-17T19:38:41.747Z,16.50
2022-12-17T19:43:45.049Z,13.60
2022-12-17T19:48:50.835Z,22.40
2022-12-17T19:53:53.890Z,15.60
2022-12-17T19:58:57.946Z,17.57
2022-12-17T20:04:00.182Z,15.57
2022-12-17T20:09:04.551Z,17.03
2022-12-17T20:14:21.439Z,14.67
2022-12-17T20:19:27.878Z,14.67
2022-12-17T20:24:31.820Z,19.00
2022-12-17T20:29:34.423Z,16.70
2022-12-17T20:34:36.063Z,17.60
2022-12-17T20:39:37.752Z,20.67
2022-12-17T20:44:40.415Z,17.50
2022-12-17T20:49:42.040Z,18.50
2022-12-17T20:54:43.677Z,16.77
2022-12-17T20:59:45.254Z,15.07
2022-12-17T21:04:46.830Z,20.33
2022-12-17T21:09:48.466Z,16.40
2022-12-17T21:14:50.065Z,14.57
2022-12-17T21:19:51.678Z,15.87
2022-12-17T21:24:53.258Z,15.83
2022-12-17T21:29:55.007Z,14.73
2022-12-17T21:34:56.527Z,13.60
2022-12-17T21:40:00.078Z,16.73
2022-12-17T21:45:01.891Z,15.70
2022-12-17T21:50:03.877Z,16.27
2022-12-17T21:55:05.752Z,20.50
2022-12-17T22:00:08.219Z,15.10
2022-12-17T22:05:12.598Z,17.77
2022-12-17T22:10:38.838Z,14.30
2022-12-17T22:15:48.135Z,17.07
2022-12-17T22:20:59.935Z,20.40
2022-12-17T22:26:01.613Z,18.50
2022-12-17T22:31:25.663Z,17.17
2022-12-17T22:37:51.266Z,15.43
2022-12-17T22:44:38.393Z,16.23
2022-12-17T22:47:30.827Z,15.70
2022-12-17T22:52:32.505Z,14.50
2022-12-17T22:57:37.537Z,14.97
2022-12-17T23:02:39.942Z,16.10
2022-12-17T23:07:41.660Z,14.10
2022-12-17T23:12:53.904Z,15.10
2022-12-17T23:17:57.770Z,18.63
2022-12-17T23:23:00.029Z,20.83
2022-12-17T23:28:01.800Z,21.17
2022-12-17T23:33:03.929Z,23.77
2022-12-17T23:38:05.642Z,19.63
2022-12-17T23:43:07.300Z,15.50
2022-12-17T23:48:09.259Z,17.00
2022-12-17T23:53:10.897Z,16.07
2022-12-17T23:58:12.576Z,14.60
